createdAt,value
2022-10-21T00:01:28.575Z,5.43
2022-10-21T00:03:55.741Z,5.32
2022-10-21T00:06:22.946Z,5.47
2022-10-21T00:08:50.114Z,5.25
2022-10-21T00:11:17.280Z,5.57
2022-10-21T00:13:44.456Z,5.50
2022-10-21T00:16:13.041Z,4.97
2022-10-21T00:18:41.032Z,5.65
2022-10-21T00:21:09.195Z,5.13
2022-10-21T00:23:36.367Z,4.80
2022-10-21T00:26:04.171Z,4.68
2022-10-21T00:28:31.668Z,4.90
2022-10-21T00:30:58.829Z,5.00
2022-10-21T00:33:26.514Z,4.80
2022-10-21T00:35:58.257Z,4.90
2022-10-21T00:38:25.731Z,5.05
2022-10-21T00:40:53.010Z,4.35
2022-10-21T00:43:20.285Z,4.75
2022-10-21T00:45:49.242Z,4.70
2022-10-21T00:48:16.361Z,4.72
2022-10-21T00:50:50.280Z,5.32
2022-10-21T00:53:17.873Z,4.75
2022-10-21T00:55:48.435Z,4.72
2022-10-21T00:58:16.526Z,5.05
2022-10-21T01:00:43.687Z,4.80
2022-10-21T01:03:10.962Z,4.28
2022-10-21T01:05:39.216Z,4.80
2022-10-21T01:08:06.438Z,5.15
2022-10-21T01:10:33.569Z,5.15
2022-10-21T01:13:09.516Z,5.20
2022-10-21T01:15:40.820Z,5.50
2022-10-21T01:20:41.400Z,5.60
2022-10-21T01:23:25.099Z,5.28
2022-10-21T01:25:52.357Z,6.22
2022-10-21T01:28:22.277Z,5.10
2022-10-21T01:30:52.220Z,5.68
2022-10-21T01:33:30.749Z,5.20
2022-10-21T01:36:06.757Z,5.20
2022-10-21T01:38:42.973Z,5.32
2022-10-21T01:41:10.043Z,6.07
2022-10-21T01:43:43.497Z,5.45
2022-10-21T01:46:15.860Z,6.15
2022-10-21T01:48:46.117Z,5.47
2022-10-21T01:51:13.398Z,5.38
2022-10-21T01:53:44.222Z,5.60
2022-10-21T01:56:12.394Z,5.13
2022-10-21T01:58:41.553Z,5.22
2022-10-21T02:01:09.265Z,5.32
2022-10-21T02:03:38.386Z,5.25
2022-10-21T02:06:05.821Z,5.20
2022-10-21T02:08:33.013Z,4.95
2022-10-21T02:11:02.426Z,5.03
2022-10-21T02:13:35.215Z,4.80
2022-10-21T02:16:04.420Z,5.20
2022-10-21T02:18:31.538Z,4.30
2022-10-21T02:21:09.673Z,4.22
2022-10-21T02:23:53.723Z,4.43
2022-10-21T02:26:25.275Z,4.22
2022-10-21T02:28:53.460Z,4.25
2022-10-21T02:31:40.945Z,4.75
2022-10-21T02:34:43.627Z,4.30
2022-10-21T02:37:10.885Z,4.28
2022-10-21T02:39:40.846Z,4.10
2022-10-21T02:42:11.076Z,4.60
2022-10-21T02:44:38.221Z,3.92
2022-10-21T02:47:05.791Z,4.30
2022-10-21T02:49:33.100Z,3.97
2022-10-21T02:52:00.212Z,4.35
2022-10-21T02:54:27.339Z,4.15
2022-10-21T02:56:54.590Z,4.63
2022-10-21T02:59:21.686Z,4.40
2022-10-21T03:01:48.958Z,4.75
2022-10-21T03:04:16.208Z,4.82
2022-10-21T03:06:43.323Z,5.38
2022-10-21T03:09:10.454Z,5.47
2022-10-21T03:11:37.625Z,5.28
2022-10-21T03:14:04.775Z,5.00
2022-10-21T03:16:31.898Z,4.70
2022-10-21T03:18:59.104Z,5.40
2022-10-21T03:21:26.264Z,5.43
2022-10-21T03:23:53.401Z,5.40
2022-10-21T03:26:20.677Z,5.28
2022-10-21T03:28:47.792Z,6.18
2022-10-21T03:31:15.025Z,5.80
2022-10-21T03:33:42.242Z,5.97
2022-10-21T03:36:09.387Z,5.63
2022-10-21T03:38:36.512Z,5.72
2022-10-21T03:41:03.699Z,5.80
2022-10-21T03:43:30.841Z,5.20
2022-10-21T03:45:57.945Z,5.60
2022-10-21T03:48:25.178Z,5.72
2022-10-21T03:50:52.326Z,5.40
2022-10-21T03:53:41.438Z,5.50
2022-10-21T03:56:06.870Z,5.32
2022-10-21T03:58:35.691Z,5.28
2022-10-21T04:01:02.925Z,5.70
2022-10-21T04:03:30.219Z,5.72
2022-10-21T04:05:57.317Z,5.82
2022-10-21T04:08:24.416Z,7.07
2022-10-21T04:10:51.707Z,7.82
2022-10-21T04:13:18.941Z,10.35
2022-10-21T04:15:46.147Z,10.45
2022-10-21T04:18:13.429Z,12.02
2022-10-21T04:20:40.578Z,12.73
2022-10-21T04:23:07.696Z,15.85
2022-10-21T04:25:34.873Z,16.30
2022-10-21T04:28:02.005Z,17.60
2022-10-21T04:30:29.114Z,18.50
2022-10-21T04:32:56.305Z,17.55
2022-10-21T04:35:23.444Z,15.25
2022-10-21T04:37:50.551Z,15.05
2022-10-21T04:40:17.881Z,15.27
2022-10-21T04:42:48.547Z,16.08
2022-10-21T04:45:15.866Z,16.75
2022-10-21T04:47:43.122Z,15.93
2022-10-21T04:50:10.247Z,16.20
2022-10-21T04:52:38.050Z,16.75
2022-10-21T04:55:05.691Z,17.73
2022-10-21T04:57:33.045Z,15.27
2022-10-21T05:00:00.187Z,16.05
2022-10-21T05:02:27.380Z,16.67
2022-10-21T05:04:54.505Z,14.98
2022-10-21T05:07:21.632Z,13.93
2022-10-21T05:09:48.809Z,13.55
2022-10-21T05:12:15.973Z,13.00
2022-10-21T05:14:43.094Z,12.48
2022-10-21T05:17:10.331Z,11.82
2022-10-21T05:19:37.543Z,12.52
2022-10-21T05:22:04.694Z,11.48
2022-10-21T05:24:31.968Z,11.55
2022-10-21T05:26:59.092Z,10.77
2022-10-21T05:29:26.193Z,10.68
2022-10-21T05:31:53.436Z,9.73
2022-10-21T05:34:20.557Z,8.98
2022-10-21T05:36:49.070Z,8.65
2022-10-21T05:39:16.565Z,9.60
2022-10-21T05:41:47.001Z,10.18
2022-10-21T05:44:15.329Z,9.30
2022-10-21T05:46:42.627Z,10.25
2022-10-21T05:49:09.780Z,9.23
2022-10-21T05:51:36.888Z,10.15
2022-10-21T05:54:05.533Z,9.27
2022-10-21T05:56:33.001Z,10.75
2022-10-21T05:59:00.162Z,10.63
2022-10-21T06:01:27.464Z,11.05
2022-10-21T06:03:54.617Z,10.60
2022-10-21T06:06:21.749Z,9.73
2022-10-21T06:08:49.060Z,11.50
2022-10-21T06:11:17.506Z,10.07
2022-10-21T06:13:45.059Z,10.48
2022-10-21T06:16:12.728Z,10.82
2022-10-21T06:18:40.344Z,9.82
2022-10-21T06:21:08.025Z,10.82
2022-10-21T06:23:35.679Z,11.32
2022-10-21T06:26:04.742Z,10.88
2022-10-21T06:28:32.850Z,12.00
2022-10-21T06:31:00.165Z,11.15
2022-10-21T06:33:27.510Z,12.02
2022-10-21T06:35:55.481Z,11.30
2022-10-21T06:38:23.366Z,10.40
2022-10-21T06:40:50.500Z,10.75
2022-10-21T06:43:17.733Z,12.20
2022-10-21T06:45:45.029Z,11.68
2022-10-21T06:48:13.600Z,12.20
2022-10-21T06:50:40.828Z,11.60
2022-10-21T06:53:08.048Z,11.57
2022-10-21T06:55:35.332Z,11.45
2022-10-21T06:58:02.475Z,10.93
2022-10-21T07:02:57.798Z,10.65
2022-10-21T07:05:24.910Z,11.45
2022-10-21T07:07:52.563Z,11.32
2022-10-21T07:10:19.803Z,11.20
2022-10-21T07:12:46.994Z,13.60
2022-10-21T07:15:14.962Z,11.88
2022-10-21T07:17:42.289Z,11.77
2022-10-21T07:20:09.710Z,10.95
2022-10-21T07:22:37.009Z,10.32
2022-10-21T07:25:04.295Z,11.55
2022-10-21T07:27:31.427Z,10.55
2022-10-21T07:29:58.687Z,10.63
2022-10-21T07:32:25.810Z,10.20
2022-10-21T07:34:52.929Z,10.10
2022-10-21T07:37:20.239Z,10.13
2022-10-21T07:39:47.372Z,10.02
2022-10-21T07:42:14.496Z,10.68
2022-10-21T07:44:41.796Z,10.60
2022-10-21T07:47:08.908Z,10.60
2022-10-21T07:49:36.028Z,11.07
2022-10-21T07:52:03.367Z,11.15
2022-10-21T07:54:30.504Z,10.15
2022-10-21T07:56:58.501Z,10.88
2022-10-21T07:59:25.707Z,10.10
2022-10-21T08:01:53.223Z,9.88
2022-10-21T08:04:22.326Z,9.15
2022-10-21T08:06:50.140Z,8.93
2022-10-21T08:09:18.023Z,9.25
2022-10-21T08:11:45.412Z,8.48
2022-10-21T08:14:12.829Z,8.80
2022-10-21T08:16:40.453Z,8.05
2022-10-21T08:19:08.427Z,7.20
2022-10-21T08:21:37.219Z,7.57
2022-10-21T08:24:04.599Z,7.80
2022-10-21T08:26:31.774Z,9.20
2022-10-21T08:31:32.520Z,9.63
2022-10-21T08:33:59.783Z,9.38
2022-10-21T08:36:26.915Z,8.15
2022-10-21T08:38:54.632Z,8.85
2022-10-21T08:41:27.755Z,8.38
2022-10-21T08:43:58.956Z,9.35
2022-10-21T08:48:56.198Z,6.60
2022-10-21T08:51:46.316Z,6.07
2022-10-21T08:54:16.813Z,6.60
2022-10-21T08:56:44.365Z,5.05
2022-10-21T08:59:22.317Z,5.07
2022-10-21T09:02:07.977Z,5.65
2022-10-21T09:04:55.744Z,5.90
2022-10-21T09:07:29.107Z,5.43
2022-10-21T09:10:01.527Z,5.00
2022-10-21T09:12:34.478Z,5.10
2022-10-21T09:15:11.161Z,4.05
2022-10-21T09:18:03.857Z,4.50
2022-10-21T09:20:31.124Z,4.18
2022-10-21T09:22:58.279Z,4.13
2022-10-21T09:25:28.298Z,4.70
2022-10-21T09:27:57.144Z,4.50
2022-10-21T09:30:25.135Z,4.72
2022-10-21T09:32:56.359Z,4.68
2022-10-21T09:37:57.656Z,4.10
2022-10-21T09:40:26.529Z,4.22
2022-10-21T09:42:56.005Z,4.28
2022-10-21T09:45:39.813Z,4.57
2022-10-21T09:48:14.680Z,4.47
2022-10-21T09:50:42.197Z,4.45
2022-10-21T09:53:14.123Z,4.03
2022-10-21T09:55:41.418Z,5.35
2022-10-21T09:58:08.713Z,6.28
2022-10-21T10:00:43.184Z,6.18
2022-10-21T10:03:10.741Z,6.22
2022-10-21T10:05:40.868Z,6.35
2022-10-21T10:08:26.903Z,5.90
2022-10-21T10:11:01.847Z,5.30
2022-10-21T10:13:31.617Z,5.03
2022-10-21T10:16:16.811Z,5.88
2022-10-21T10:18:44.602Z,5.60
2022-10-21T10:21:12.930Z,5.30
2022-10-21T10:23:44.637Z,5.05
2022-10-21T10:26:12.369Z,6.05
2022-10-21T10:31:11.825Z,5.28
2022-10-21T10:33:38.997Z,5.25
2022-10-21T10:36:09.348Z,6.97
2022-10-21T10:38:45.550Z,6.03
2022-10-21T10:41:14.902Z,6.97
2022-10-21T10:44:00.608Z,6.97
2022-10-21T10:46:29.256Z,6.20
2022-10-21T10:48:57.115Z,5.82
2022-10-21T10:51:35.205Z,5.40
2022-10-21T10:54:08.367Z,4.82
2022-10-21T10:56:35.656Z,4.70
2022-10-21T10:59:11.930Z,4.53
2022-10-21T11:01:42.342Z,4.43
2022-10-21T11:04:21.972Z,4.50
2022-10-21T11:06:51.415Z,3.10
2022-10-21T11:09:23.769Z,5.47
2022-10-21T11:11:55.351Z,4.22
2022-10-21T11:14:23.239Z,3.90
2022-10-21T11:17:00.099Z,3.85
2022-10-21T11:19:46.272Z,3.28
2022-10-21T11:22:16.363Z,2.90
2022-10-21T11:24:45.417Z,2.90
2022-10-21T11:27:19.165Z,3.63
2022-10-21T11:30:04.853Z,4.15
2022-10-21T11:32:56.651Z,3.75
2022-10-21T11:35:23.860Z,4.03
2022-10-21T11:38:08.472Z,4.18
2022-10-21T11:40:50.831Z,3.78
2022-10-21T11:43:43.909Z,3.53
2022-10-21T11:46:23.293Z,2.50
2022-10-21T11:48:56.106Z,1.88
2022-10-21T11:51:23.278Z,1.77
2022-10-21T11:53:59.526Z,2.03
2022-10-21T11:56:33.144Z,2.60
2022-10-21T11:59:00.329Z,2.40
2022-10-21T12:01:27.426Z,2.42
2022-10-21T12:04:06.957Z,1.90
2022-10-21T12:06:34.813Z,1.83
2022-10-21T12:09:34.520Z,2.00
2022-10-21T12:12:11.269Z,1.60
2022-10-21T12:14:41.186Z,2.00
2022-10-21T12:17:11.353Z,1.70
2022-10-21T12:19:38.651Z,1.95
2022-10-21T12:22:06.166Z,2.25
2022-10-21T12:25:11.810Z,2.20
2022-10-21T12:27:43.302Z,2.33
2022-10-21T12:30:12.858Z,2.17
2022-10-21T12:32:52.432Z,2.83
2022-10-21T12:35:27.420Z,2.95
2022-10-21T12:37:59.844Z,2.30
2022-10-21T12:40:32.553Z,2.78
2022-10-21T12:43:01.287Z,2.95
2022-10-21T12:45:31.208Z,2.97
2022-10-21T12:47:58.689Z,3.17
2022-10-21T12:50:30.469Z,2.90
2022-10-21T12:53:16.540Z,3.28
2022-10-21T12:55:49.331Z,3.80
2022-10-21T12:58:37.700Z,4.10
2022-10-21T13:01:05.685Z,4.07
2022-10-21T13:03:52.869Z,3.13
2022-10-21T13:06:40.077Z,3.47
2022-10-21T13:12:05.212Z,3.47
2022-10-21T13:14:52.583Z,3.03
2022-10-21T13:17:23.045Z,2.53
2022-10-21T13:19:54.037Z,2.70
2022-10-21T13:22:34.637Z,3.13
2022-10-21T13:25:17.007Z,2.88
2022-10-21T13:27:45.569Z,2.88
2022-10-21T13:30:28.361Z,3.60
2022-10-21T13:33:05.907Z,3.28
2022-10-21T13:35:42.075Z,3.58
2022-10-21T13:38:18.445Z,5.07
2022-10-21T13:40:50.531Z,4.25
2022-10-21T13:43:19.672Z,4.30
2022-10-21T13:45:51.243Z,5.07
2022-10-21T13:48:19.850Z,4.03
2022-10-21T13:50:48.892Z,3.03
2022-10-21T13:53:19.170Z,3.58
2022-10-21T13:55:55.826Z,3.30
2022-10-21T13:58:23.709Z,3.60
2022-10-21T14:00:55.019Z,3.35
2022-10-21T14:03:26.252Z,3.00
2022-10-21T14:06:01.194Z,3.72
2022-10-21T14:08:28.635Z,3.22
2022-10-21T14:10:59.720Z,2.83
2022-10-21T14:13:29.119Z,3.10
2022-10-21T14:15:57.017Z,3.47
2022-10-21T14:18:32.375Z,3.10
2022-10-21T14:21:02.458Z,3.85
2022-10-21T14:23:30.293Z,4.10
2022-10-21T14:26:09.946Z,3.30
2022-10-21T14:28:37.699Z,3.20
2022-10-21T14:31:11.951Z,3.17
2022-10-21T14:33:41.805Z,3.28
2022-10-21T14:36:14.989Z,2.60
2022-10-21T14:38:44.501Z,2.85
2022-10-21T14:41:17.183Z,2.47
2022-10-21T14:43:45.562Z,3.42
2022-10-21T14:46:12.869Z,3.08
2022-10-21T14:48:39.982Z,2.95
2022-10-21T14:51:09.624Z,3.60
2022-10-21T14:53:38.083Z,3.63
2022-10-21T14:56:06.747Z,3.85
2022-10-21T14:58:38.619Z,4.68
2022-10-21T15:01:18.128Z,3.72
2022-10-21T15:03:45.463Z,4.10
2022-10-21T15:06:34.774Z,3.80
2022-10-21T15:09:02.092Z,4.00
2022-10-21T15:11:29.493Z,5.15
2022-10-21T15:13:57.248Z,5.63
2022-10-21T15:16:26.891Z,5.80
2022-10-21T15:18:54.541Z,5.95
2022-10-21T15:21:27.529Z,4.57
2022-10-21T15:23:56.654Z,5.05
2022-10-21T15:26:25.054Z,5.47
2022-10-21T15:28:53.059Z,4.97
2022-10-21T15:31:25.617Z,6.07
2022-10-21T15:33:54.081Z,5.95
2022-10-21T15:36:21.578Z,7.70
2022-10-21T15:38:49.005Z,5.75
2022-10-21T15:41:17.843Z,5.65
2022-10-21T15:43:51.262Z,4.30
2022-10-21T15:46:21.588Z,5.10
2022-10-21T15:48:48.757Z,4.10
2022-10-21T15:51:15.909Z,5.43
2022-10-21T15:53:44.566Z,7.00
2022-10-21T15:56:19.190Z,4.47
2022-10-21T15:58:46.708Z,5.15
2022-10-21T16:01:16.059Z,8.68
2022-10-21T16:03:43.965Z,7.95
2022-10-21T16:06:15.185Z,7.07
2022-10-21T16:11:13.574Z,5.82
2022-10-21T16:16:19.963Z,7.82
2022-10-21T16:18:47.805Z,7.00
2022-10-21T16:21:15.936Z,6.88
2022-10-21T16:23:43.442Z,7.07
2022-10-21T16:26:33.155Z,8.55
2022-10-21T16:29:00.301Z,7.43
2022-10-21T16:31:28.017Z,8.00
2022-10-21T16:33:55.349Z,9.27
2022-10-21T16:36:27.577Z,7.35
2022-10-21T16:38:54.748Z,7.60
2022-10-21T16:41:28.855Z,6.53
2022-10-21T16:43:56.505Z,9.52
2022-10-21T16:46:34.368Z,8.75
2022-10-21T16:49:04.510Z,8.07
2022-10-21T16:51:32.426Z,9.32
2022-10-21T16:53:59.699Z,7.00
2022-10-21T16:58:58.850Z,8.60
2022-10-21T17:01:26.324Z,5.00
2022-10-21T17:03:53.633Z,4.30
2022-10-21T17:06:22.441Z,3.67
2022-10-21T17:08:50.428Z,3.83
2022-10-21T17:11:20.378Z,3.20
2022-10-21T17:13:47.705Z,3.17
2022-10-21T17:16:15.661Z,3.35
2022-10-21T17:18:44.257Z,3.90
2022-10-21T17:21:17.598Z,4.38
2022-10-21T17:23:44.760Z,4.68
2022-10-21T17:26:11.942Z,4.78
2022-10-21T17:28:39.120Z,4.47
2022-10-21T17:31:06.276Z,4.97
2022-10-21T17:33:33.390Z,5.00
2022-10-21T17:36:00.647Z,5.40
2022-10-21T17:38:27.764Z,5.15
2022-10-21T17:40:54.858Z,5.75
2022-10-21T17:43:22.141Z,5.60
2022-10-21T17:45:49.240Z,5.15
2022-10-21T17:48:16.354Z,5.35
2022-10-21T17:50:43.552Z,6.18
2022-10-21T17:53:10.802Z,5.93
2022-10-21T17:55:37.905Z,8.75
2022-10-21T17:58:05.169Z,7.53
2022-10-21T18:00:32.319Z,7.63
2022-10-21T18:02:59.429Z,7.28
2022-10-21T18:05:26.617Z,6.97
2022-10-21T18:07:53.783Z,9.32
2022-10-21T18:10:20.917Z,10.35
2022-10-21T18:12:48.105Z,8.85
2022-10-21T18:15:15.355Z,7.53
2022-10-21T18:17:43.021Z,5.90
2022-10-21T18:20:10.781Z,5.35
2022-10-21T18:22:38.198Z,7.22
2022-10-21T18:25:05.711Z,7.38
2022-10-21T18:27:33.028Z,7.20
2022-10-21T18:30:00.192Z,7.93
2022-10-21T18:32:27.305Z,7.55
2022-10-21T18:34:54.560Z,9.73
2022-10-21T18:37:21.665Z,8.43
2022-10-21T18:39:48.801Z,9.52
2022-10-21T18:42:15.993Z,9.63
2022-10-21T18:44:43.217Z,9.73
2022-10-21T18:47:10.479Z,10.70
2022-10-21T18:49:37.969Z,10.30
2022-10-21T18:52:05.642Z,10.57
2022-10-21T18:54:32.771Z,11.75
2022-10-21T18:56:59.937Z,11.73
2022-10-21T18:59:27.089Z,11.48
2022-10-21T19:01:54.977Z,11.65
2022-10-21T19:04:22.334Z,10.85
2022-10-21T19:06:49.508Z,11.98
2022-10-21T19:09:21.159Z,11.88
2022-10-21T19:11:48.456Z,12.00
2022-10-21T19:14:16.075Z,11.27
2022-10-21T19:16:44.164Z,12.75
2022-10-21T19:19:11.529Z,12.70
2022-10-21T19:21:38.706Z,11.85
2022-10-21T19:24:06.243Z,11.88
2022-10-21T19:26:34.441Z,10.73
2022-10-21T19:29:03.050Z,11.70
2022-10-21T19:31:32.391Z,11.20
2022-10-21T19:34:03.126Z,10.88
2022-10-21T19:36:30.249Z,11.15
2022-10-21T19:38:57.379Z,11.93
2022-10-21T19:41:24.683Z,11.45
2022-10-21T19:43:51.829Z,11.35
2022-10-21T19:46:23.455Z,11.80
2022-10-21T19:48:53.011Z,10.80
2022-10-21T19:51:21.549Z,11.70
2022-10-21T19:53:48.981Z,11.48
2022-10-21T19:56:18.085Z,12.50
2022-10-21T19:58:47.356Z,11.50
2022-10-21T20:01:15.826Z,11.50
2022-10-21T20:03:44.134Z,11.63
2022-10-21T20:08:45.951Z,11.20
2022-10-21T20:11:14.359Z,11.88
2022-10-21T20:13:42.096Z,11.20
2022-10-21T20:16:14.338Z,11.82
2022-10-21T20:18:44.483Z,12.63
2022-10-21T20:21:12.820Z,12.80
2022-10-21T20:23:40.114Z,13.70
2022-10-21T20:26:07.346Z,13.35
2022-10-21T20:28:34.759Z,13.80
2022-10-21T20:31:03.833Z,13.93
2022-10-21T20:33:32.269Z,14.75
2022-10-21T20:36:03.143Z,15.30
2022-10-21T20:38:30.420Z,14.55
2022-10-21T20:41:06.600Z,14.77
2022-10-21T20:43:37.386Z,14.63
2022-10-21T20:46:05.233Z,16.17
2022-10-21T20:48:32.490Z,15.98
2022-10-21T20:51:02.599Z,15.68
2022-10-21T20:53:31.298Z,15.50
2022-10-21T20:55:58.768Z,16.05
2022-10-21T20:58:26.179Z,14.43
2022-10-21T21:00:53.297Z,16.52
2022-10-21T21:03:20.598Z,15.85
2022-10-21T21:05:47.812Z,16.08
2022-10-21T21:08:15.009Z,16.98
2022-10-21T21:10:42.683Z,16.25
2022-10-21T21:13:09.926Z,15.32
2022-10-21T21:15:37.106Z,15.77
2022-10-21T21:18:10.172Z,14.38
2022-10-21T21:20:37.295Z,14.85
2022-10-21T21:23:04.426Z,15.10
2022-10-21T21:25:31.672Z,14.38
2022-10-21T21:27:58.810Z,13.70
2022-10-21T21:30:25.939Z,13.18
2022-10-21T21:32:53.193Z,13.90
2022-10-21T21:35:20.405Z,12.85
2022-10-21T21:37:47.530Z,12.65
2022-10-21T21:40:14.773Z,12.45
2022-10-21T21:42:42.207Z,12.90
2022-10-21T21:45:09.926Z,12.80
2022-10-21T21:47:37.216Z,12.68
2022-10-21T21:50:04.389Z,12.93
2022-10-21T21:52:32.233Z,12.52
2022-10-21T21:54:59.450Z,13.43
2022-10-21T21:57:28.145Z,13.77
2022-10-21T21:59:55.757Z,13.50
2022-10-21T22:02:22.943Z,13.70
2022-10-21T22:04:50.070Z,13.85
2022-10-21T22:07:17.213Z,14.35
2022-10-21T22:09:44.415Z,14.95
2022-10-21T22:12:14.421Z,13.68
2022-10-21T22:14:42.191Z,14.50
2022-10-21T22:17:09.432Z,14.02
2022-10-21T22:19:36.582Z,12.25
2022-10-21T22:22:03.723Z,13.88
2022-10-21T22:27:06.710Z,13.82
2022-10-21T22:29:33.844Z,14.23
2022-10-21T22:32:01.149Z,14.50
2022-10-21T22:34:28.284Z,15.07
2022-10-21T22:36:55.388Z,14.32
2022-10-21T22:39:22.711Z,13.75
2022-10-21T22:41:49.858Z,15.10
2022-10-21T22:44:17.037Z,14.10
2022-10-21T22:46:44.213Z,13.02
2022-10-21T22:49:11.397Z,13.25
2022-10-21T22:51:38.557Z,13.38
2022-10-21T22:54:11.570Z,12.32
2022-10-21T22:56:46.586Z,11.63
2022-10-21T22:59:13.757Z,12.15
2022-10-21T23:01:40.923Z,11.85
2022-10-21T23:04:08.054Z,10.98
2022-10-21T23:06:35.770Z,11.48
2022-10-21T23:09:03.870Z,12.32
2022-10-21T23:11:31.404Z,12.57
2022-10-21T23:14:03.230Z,11.57
2022-10-21T23:16:30.831Z,10.90
2022-10-21T23:18:57.978Z,10.30
2022-10-21T23:21:25.306Z,12.00
2022-10-21T23:23:52.703Z,11.30
2022-10-21T23:26:19.809Z,11.75
2022-10-21T23:28:46.990Z,11.68
2022-10-21T23:31:14.176Z,12.27
2022-10-21T23:33:41.415Z,11.30
2022-10-21T23:36:08.675Z,12.45
2022-10-21T23:38:35.800Z,12.93
2022-10-21T23:41:02.939Z,12.38
2022-10-21T23:43:30.134Z,12.77
2022-10-21T23:45:57.237Z,13.82
2022-10-21T23:48:24.351Z,13.63
2022-10-21T23:50:51.627Z,13.10
2022-10-21T23:53:18.738Z,12.65
2022-10-21T23:55:45.849Z,14.05
2022-10-21T23:58:13.481Z,14.77
